sensor_id;sensor_type;location;lat;lon;timestamp;P1;durP1;ratioP1;P2;durP2;ratioP2
3795;SDS011;1913;50.660;7.834;2024-02-23T00:01:43;1.53;;;0.80;;
3795;SDS011;1913;50.660;7.834;2024-02-23T00:04:08;2.30;;;1.10;;
3795;SDS011;1913;50.660;7.834;2024-02-23T00:06:34;2.17;;;1.17;;
3795;SDS011;1913;50.660;7.834;2024-02-23T00:08:59;5.77;;;1.47;;
3795;SDS011;1913;50.660;7.834;2024-02-23T00:11:24;1.50;;;1.10;;
3795;SDS011;1913;50.660;7.834;2024-02-23T00:13:50;2.53;;;1.00;;
3795;SDS011;1913;50.660;7.834;2024-02-23T00:16:15;1.43;;;0.80;;
3795;SDS011;1913;50.660;7.834;2024-02-23T00:18:40;3.77;;;1.30;;
3795;SDS011;1913;50.660;7.834;2024-02-23T00:21:06;1.70;;;0.90;;
3795;SDS011;1913;50.660;7.834;2024-02-23T00:23:31;5.10;;;1.60;;
3795;SDS011;1913;50.660;7.834;2024-02-23T00:25:56;1.97;;;0.77;;
3795;SDS011;1913;50.660;7.834;2024-02-23T00:28:21;4.20;;;0.87;;
3795;SDS011;1913;50.660;7.834;2024-02-23T00:30:46;0.87;;;0.70;;
3795;SDS011;1913;50.660;7.834;2024-02-23T00:33:12;4.73;;;1.03;;
3795;SDS011;1913;50.660;7.834;2024-02-23T00:35:38;3.03;;;1.13;;
3795;SDS011;1913;50.660;7.834;2024-02-23T00:38:03;2.57;;;0.93;;
3795;SDS011;1913;50.660;7.834;2024-02-23T00:40:29;2.00;;;0.70;;
3795;SDS011;1913;50.660;7.834;2024-02-23T00:42:54;3.17;;;0.93;;
3795;SDS011;1913;50.660;7.834;2024-02-23T00:45:19;1.47;;;0.90;;
3795;SDS011;1913;50.660;7.834;2024-02-23T00:47:45;2.80;;;1.00;;
3795;SDS011;1913;50.660;7.834;2024-02-23T00:50:12;0.60;;;0.60;;
3795;SDS011;1913;50.660;7.834;2024-02-23T00:52:37;0.80;;;0.80;;
3795;SDS011;1913;50.660;7.834;2024-02-23T00:55:02;1.67;;;0.80;;
3795;SDS011;1913;50.660;7.834;2024-02-23T00:57:27;2.80;;;0.80;;
3795;SDS011;1913;50.660;7.834;2024-02-23T00:59:55;0.60;;;0.60;;
3795;SDS011;1913;50.660;7.834;2024-02-23T01:02:20;1.00;;;0.70;;
3795;SDS011;1913;50.660;7.834;2024-02-23T01:04:45;1.53;;;0.60;;
3795;SDS011;1913;50.660;7.834;2024-02-23T01:07:10;0.90;;;0.80;;
3795;SDS011;1913;50.660;7.834;2024-02-23T01:09:35;0.60;;;0.57;;
3795;SDS011;1913;50.660;7.834;2024-02-23T01:12:01;1.30;;;1.20;;
3795;SDS011;1913;50.660;7.834;2024-02-23T01:14:26;0.80;;;0.60;;
3795;SDS011;1913;50.660;7.834;2024-02-23T01:16:51;0.63;;;0.63;;
3795;SDS011;1913;50.660;7.834;2024-02-23T01:19:16;1.73;;;0.60;;
3795;SDS011;1913;50.660;7.834;2024-02-23T01:21:41;2.00;;;0.70;;
3795;SDS011;1913;50.660;7.834;2024-02-23T01:24:07;1.27;;;0.70;;
3795;SDS011;1913;50.660;7.834;2024-02-23T01:26:32;0.53;;;0.53;;
3795;SDS011;1913;50.660;7.834;2024-02-23T01:28:57;0.50;;;0.50;;
3795;SDS011;1913;50.660;7.834;2024-02-23T01:31:22;0.80;;;0.60;;
3795;SDS011;1913;50.660;7.834;2024-02-23T01:33:48;1.23;;;0.60;;
3795;SDS011;1913;50.660;7.834;2024-02-23T01:36:14;1.40;;;0.77;;
3795;SDS011;1913;50.660;7.834;2024-02-23T01:38:39;0.93;;;0.60;;
3795;SDS011;1913;50.660;7.834;2024-02-23T01:41:07;0.60;;;0.60;;
3795;SDS011;1913;50.660;7.834;2024-02-23T01:43:33;1.50;;;0.80;;
3795;SDS011;1913;50.660;7.834;2024-02-23T01:45:58;3.33;;;0.70;;
3795;SDS011;1913;50.660;7.834;2024-02-23T01:48:23;2.30;;;0.70;;
3795;SDS011;1913;50.660;7.834;2024-02-23T01:50:49;0.80;;;0.67;;
3795;SDS011;1913;50.660;7.834;2024-02-23T01:53:14;1.27;;;0.70;;
3795;SDS011;1913;50.660;7.834;2024-02-23T01:55:40;1.17;;;0.60;;
3795;SDS011;1913;50.660;7.834;2024-02-23T01:58:06;1.97;;;0.90;;
3795;SDS011;1913;50.660;7.834;2024-02-23T02:00:31;1.10;;;0.70;;
3795;SDS011;1913;50.660;7.834;2024-02-23T02:02:56;2.30;;;0.80;;
3795;SDS011;1913;50.660;7.834;2024-02-23T02:05:22;2.43;;;0.60;;
3795;SDS011;1913;50.660;7.834;2024-02-23T02:07:47;5.93;;;1.43;;
3795;SDS011;1913;50.660;7.834;2024-02-23T02:10:15;3.33;;;0.87;;
3795;SDS011;1913;50.660;7.834;2024-02-23T02:12:41;1.40;;;0.77;;
3795;SDS011;1913;50.660;7.834;2024-02-23T02:15:06;2.47;;;0.87;;
3795;SDS011;1913;50.660;7.834;2024-02-23T02:17:32;1.30;;;0.90;;
3795;SDS011;1913;50.660;7.834;2024-02-23T02:19:58;3.60;;;0.90;;
3795;SDS011;1913;50.660;7.834;2024-02-23T02:22:23;1.80;;;0.80;;
3795;SDS011;1913;50.660;7.834;2024-02-23T02:24:49;1.20;;;0.80;;
3795;SDS011;1913;50.660;7.834;2024-02-23T02:27:14;1.23;;;0.80;;
3795;SDS011;1913;50.660;7.834;2024-02-23T02:29:39;1.23;;;0.80;;
3795;SDS011;1913;50.660;7.834;2024-02-23T02:32:04;1.63;;;0.70;;
3795;SDS011;1913;50.660;7.834;2024-02-23T02:34:30;1.23;;;0.80;;
3795;SDS011;1913;50.660;7.834;2024-02-23T02:36:55;1.77;;;0.70;;
3795;SDS011;1913;50.660;7.834;2024-02-23T02:39:20;1.27;;;0.90;;
3795;SDS011;1913;50.660;7.834;2024-02-23T02:41:47;1.60;;;0.80;;
3795;SDS011;1913;50.660;7.834;2024-02-23T02:44:12;1.27;;;0.67;;
3795;SDS011;1913;50.660;7.834;2024-02-23T02:46:39;2.37;;;0.87;;
3795;SDS011;1913;50.660;7.834;2024-02-23T02:49:04;0.87;;;0.73;;
3795;SDS011;1913;50.660;7.834;2024-02-23T02:51:29;1.50;;;0.67;;
3795;SDS011;1913;50.660;7.834;2024-02-23T02:53:54;2.30;;;0.70;;
3795;SDS011;1913;50.660;7.834;2024-02-23T02:56:19;2.63;;;0.80;;
3795;SDS011;1913;50.660;7.834;2024-02-23T02:58:44;1.53;;;0.70;;
3795;SDS011;1913;50.660;7.834;2024-02-23T03:01:10;2.60;;;0.80;;
3795;SDS011;1913;50.660;7.834;2024-02-23T03:03:35;2.33;;;1.10;;
3795;SDS011;1913;50.660;7.834;2024-02-23T03:06:00;2.47;;;1.00;;
3795;SDS011;1913;50.660;7.834;2024-02-23T03:08:25;1.93;;;0.90;;
3795;SDS011;1913;50.660;7.834;2024-02-23T03:10:51;1.80;;;1.00;;
3795;SDS011;1913;50.660;7.834;2024-02-23T03:13:16;6.20;;;1.40;;
3795;SDS011;1913;50.660;7.834;2024-02-23T03:15:41;1.63;;;0.90;;
3795;SDS011;1913;50.660;7.834;2024-02-23T03:18:07;2.50;;;1.17;;
3795;SDS011;1913;50.660;7.834;2024-02-23T03:20:34;2.77;;;1.07;;
3795;SDS011;1913;50.660;7.834;2024-02-23T03:22:59;1.37;;;0.77;;
3795;SDS011;1913;50.660;7.834;2024-02-23T03:25:26;2.07;;;0.90;;
3795;SDS011;1913;50.660;7.834;2024-02-23T03:27:51;1.57;;;0.90;;
3795;SDS011;1913;50.660;7.834;2024-02-23T03:30:16;2.60;;;0.93;;
3795;SDS011;1913;50.660;7.834;2024-02-23T03:32:41;1.10;;;0.90;;
3795;SDS011;1913;50.660;7.834;2024-02-23T03:35:07;4.20;;;1.43;;
3795;SDS011;1913;50.660;7.834;2024-02-23T03:37:33;3.73;;;0.80;;
3795;SDS011;1913;50.660;7.834;2024-02-23T03:39:58;1.80;;;0.90;;
3795;SDS011;1913;50.660;7.834;2024-02-23T03:42:25;3.40;;;0.90;;
3795;SDS011;1913;50.660;7.834;2024-02-23T03:44:50;6.47;;;1.20;;
3795;SDS011;1913;50.660;7.834;2024-02-23T03:47:15;1.27;;;0.97;;
3795;SDS011;1913;50.660;7.834;2024-02-23T03:49:41;4.20;;;0.90;;
3795;SDS011;1913;50.660;7.834;2024-02-23T03:52:06;5.93;;;1.13;;
3795;SDS011;1913;50.660;7.834;2024-02-23T03:54:31;7.30;;;1.30;;
3795;SDS011;1913;50.660;7.834;2024-02-23T03:56:56;2.70;;;1.10;;
3795;SDS011;1913;50.660;7.834;2024-02-23T03:59:21;4.57;;;1.50;;
3795;SDS011;1913;50.660;7.834;2024-02-23T04:01:47;2.60;;;1.10;;
3795;SDS011;1913;50.660;7.834;2024-02-23T04:04:12;5.80;;;1.00;;
3795;SDS011;1913;50.660;7.834;2024-02-23T04:06:37;3.43;;;1.10;;
3795;SDS011;1913;50.660;7.834;2024-02-23T04:09:02;3.60;;;0.97;;
3795;SDS011;1913;50.660;7.834;2024-02-23T04:11:30;2.87;;;1.30;;
3795;SDS011;1913;50.660;7.834;2024-02-23T04:13:55;3.83;;;1.37;;
3795;SDS011;1913;50.660;7.834;2024-02-23T04:16:24;3.40;;;1.20;;
3795;SDS011;1913;50.660;7.834;2024-02-23T04:18:52;4.20;;;1.00;;
3795;SDS011;1913;50.660;7.834;2024-02-23T04:21:17;2.87;;;1.17;;
3795;SDS011;1913;50.660;7.834;2024-02-23T04:23:43;1.57;;;1.07;;
3795;SDS011;1913;50.660;7.834;2024-02-23T04:26:08;2.43;;;1.00;;
3795;SDS011;1913;50.660;7.834;2024-02-23T04:28:33;3.10;;;1.10;;
3795;SDS011;1913;50.660;7.834;2024-02-23T04:30:58;9.67;;;0.90;;
3795;SDS011;1913;50.660;7.834;2024-02-23T04:33:24;2.10;;;1.00;;
3795;SDS011;1913;50.660;7.834;2024-02-23T04:35:49;4.10;;;1.20;;
3795;SDS011;1913;50.660;7.834;2024-02-23T04:38:14;4.23;;;1.50;;
3795;SDS011;1913;50.660;7.834;2024-02-23T04:40:40;2.30;;;1.33;;
3795;SDS011;1913;50.660;7.834;2024-02-23T04:43:05;2.10;;;1.30;;
3795;SDS011;1913;50.660;7.834;2024-02-23T04:45:30;3.60;;;1.10;;
3795;SDS011;1913;50.660;7.834;2024-02-23T04:47:55;2.30;;;0.90;;
3795;SDS011;1913;50.660;7.834;2024-02-23T04:50:20;3.23;;;1.20;;
3795;SDS011;1913;50.660;7.834;2024-02-23T04:52:46;6.53;;;1.20;;
3795;SDS011;1913;50.660;7.834;2024-02-23T04:55:11;7.10;;;1.27;;
3795;SDS011;1913;50.660;7.834;2024-02-23T04:57:36;3.83;;;1.00;;
3795;SDS011;1913;50.660;7.834;2024-02-23T05:00:02;1.80;;;1.00;;
3795;SDS011;1913;50.660;7.834;2024-02-23T05:02:28;3.33;;;1.00;;
3795;SDS011;1913;50.660;7.834;2024-02-23T05:04:58;1.53;;;1.00;;
3795;SDS011;1913;50.660;7.834;2024-02-23T05:07:24;4.03;;;1.20;;
3795;SDS011;1913;50.660;7.834;2024-02-23T05:09:49;3.47;;;1.20;;
3795;SDS011;1913;50.660;7.834;2024-02-23T05:12:14;7.63;;;1.17;;
3795;SDS011;1913;50.660;7.834;2024-02-23T05:14:39;2.93;;;1.20;;
3795;SDS011;1913;50.660;7.834;2024-02-23T05:17:04;4.80;;;1.27;;
3795;SDS011;1913;50.660;7.834;2024-02-23T05:19:30;3.13;;;1.03;;
3795;SDS011;1913;50.660;7.834;2024-02-23T05:21:55;7.03;;;1.20;;
3795;SDS011;1913;50.660;7.834;2024-02-23T05:24:20;2.90;;;1.27;;
3795;SDS011;1913;50.660;7.834;2024-02-23T05:26:45;5.23;;;1.40;;
3795;SDS011;1913;50.660;7.834;2024-02-23T05:29:11;4.83;;;1.27;;
3795;SDS011;1913;50.660;7.834;2024-02-23T05:31:44;3.40;;;1.50;;
3795;SDS011;1913;50.660;7.834;2024-02-23T05:34:10;9.83;;;1.60;;
3795;SDS011;1913;50.660;7.834;2024-02-23T05:36:36;4.90;;;1.50;;
3795;SDS011;1913;50.660;7.834;2024-02-23T05:39:01;4.37;;;1.57;;
3795;SDS011;1913;50.660;7.834;2024-02-23T05:41:26;2.90;;;1.20;;
3795;SDS011;1913;50.660;7.834;2024-02-23T05:43:51;5.03;;;1.17;;
3795;SDS011;1913;50.660;7.834;2024-02-23T05:46:17;3.13;;;1.40;;
3795;SDS011;1913;50.660;7.834;2024-02-23T05:48:43;4.10;;;1.70;;
3795;SDS011;1913;50.660;7.834;2024-02-23T05:51:08;2.77;;;1.20;;
3795;SDS011;1913;50.660;7.834;2024-02-23T05:53:33;5.17;;;1.17;;
3795;SDS011;1913;50.660;7.834;2024-02-23T05:55:59;9.00;;;1.60;;
3795;SDS011;1913;50.660;7.834;2024-02-23T05:58:24;3.40;;;1.00;;
3795;SDS011;1913;50.660;7.834;2024-02-23T06:00:49;4.93;;;1.27;;
3795;SDS011;1913;50.660;7.834;2024-02-23T06:03:16;2.97;;;1.20;;
3795;SDS011;1913;50.660;7.834;2024-02-23T06:05:43;6.77;;;1.70;;
3795;SDS011;1913;50.660;7.834;2024-02-23T06:08:08;5.10;;;1.43;;
3795;SDS011;1913;50.660;7.834;2024-02-23T06:10:33;7.73;;;1.50;;
3795;SDS011;1913;50.660;7.834;2024-02-23T06:12:59;9.50;;;1.70;;
3795;SDS011;1913;50.660;7.834;2024-02-23T06:15:24;6.00;;;1.60;;
3795;SDS011;1913;50.660;7.834;2024-02-23T06:17:49;9.20;;;1.80;;
3795;SDS011;1913;50.660;7.834;2024-02-23T06:20:14;4.20;;;1.43;;
3795;SDS011;1913;50.660;7.834;2024-02-23T06:22:39;6.23;;;1.63;;
3795;SDS011;1913;50.660;7.834;2024-02-23T06:25:05;4.50;;;1.60;;
3795;SDS011;1913;50.660;7.834;2024-02-23T06:27:30;10.97;;;2.77;;
3795;SDS011;1913;50.660;7.834;2024-02-23T06:29:55;6.57;;;1.80;;
3795;SDS011;1913;50.660;7.834;2024-02-23T06:32:20;8.40;;;1.97;;
3795;SDS011;1913;50.660;7.834;2024-02-23T06:34:46;15.17;;;1.90;;
3795;SDS011;1913;50.660;7.834;2024-02-23T06:37:11;5.67;;;2.03;;
3795;SDS011;1913;50.660;7.834;2024-02-23T06:39:37;5.77;;;1.87;;
3795;SDS011;1913;50.660;7.834;2024-02-23T06:42:02;6.63;;;2.33;;
3795;SDS011;1913;50.660;7.834;2024-02-23T06:44:29;8.53;;;2.07;;
3795;SDS011;1913;50.660;7.834;2024-02-23T06:46:54;7.87;;;1.83;;
3795;SDS011;1913;50.660;7.834;2024-02-23T06:49:19;4.23;;;1.57;;
3795;SDS011;1913;50.660;7.834;2024-02-23T06:51:45;3.80;;;1.60;;
3795;SDS011;1913;50.660;7.834;2024-02-23T06:54:10;5.10;;;1.80;;
3795;SDS011;1913;50.660;7.834;2024-02-23T06:56:35;4.53;;;1.50;;
3795;SDS011;1913;50.660;7.834;2024-02-23T06:59:02;4.00;;;1.60;;
3795;SDS011;1913;50.660;7.834;2024-02-23T07:01:30;4.60;;;1.80;;
3795;SDS011;1913;50.660;7.834;2024-02-23T07:03:56;8.10;;;1.50;;
3795;SDS011;1913;50.660;7.834;2024-02-23T07:06:21;3.83;;;1.30;;
3795;SDS011;1913;50.660;7.834;2024-02-23T07:08:46;5.63;;;1.43;;
3795;SDS011;1913;50.660;7.834;2024-02-23T07:11:11;12.27;;;1.83;;
3795;SDS011;1913;50.660;7.834;2024-02-23T07:13:37;6.13;;;1.33;;
3795;SDS011;1913;50.660;7.834;2024-02-23T07:16:02;4.60;;;1.70;;
3795;SDS011;1913;50.660;7.834;2024-02-23T07:18:28;8.03;;;1.37;;
3795;SDS011;1913;50.660;7.834;2024-02-23T07:20:53;5.17;;;2.50;;
3795;SDS011;1913;50.660;7.834;2024-02-23T07:23:18;8.50;;;1.70;;
3795;SDS011;1913;50.660;7.834;2024-02-23T07:25:43;5.07;;;1.57;;
3795;SDS011;1913;50.660;7.834;2024-02-23T07:28:09;13.93;;;1.80;;
3795;SDS011;1913;50.660;7.834;2024-02-23T07:30:34;7.10;;;1.63;;
3795;SDS011;1913;50.660;7.834;2024-02-23T07:33:02;10.70;;;2.30;;
3795;SDS011;1913;50.660;7.834;2024-02-23T07:35:27;6.33;;;1.90;;
3795;SDS011;1913;50.660;7.834;2024-02-23T07:37:56;4.23;;;1.53;;
3795;SDS011;1913;50.660;7.834;2024-02-23T07:40:21;10.07;;;1.60;;
3795;SDS011;1913;50.660;7.834;2024-02-23T07:42:46;7.07;;;1.60;;
3795;SDS011;1913;50.660;7.834;2024-02-23T07:45:11;4.73;;;1.53;;
3795;SDS011;1913;50.660;7.834;2024-02-23T07:47:36;5.87;;;1.37;;
3795;SDS011;1913;50.660;7.834;2024-02-23T07:50:02;7.43;;;2.00;;
3795;SDS011;1913;50.660;7.834;2024-02-23T07:52:27;5.17;;;1.40;;
3795;SDS011;1913;50.660;7.834;2024-02-23T07:54:52;6.60;;;1.60;;
3795;SDS011;1913;50.660;7.834;2024-02-23T07:57:21;7.20;;;1.53;;
3795;SDS011;1913;50.660;7.834;2024-02-23T07:59:46;5.20;;;1.57;;
3795;SDS011;1913;50.660;7.834;2024-02-23T08:02:12;5.83;;;1.63;;
3795;SDS011;1913;50.660;7.834;2024-02-23T08:04:37;5.00;;;1.50;;
3795;SDS011;1913;50.660;7.834;2024-02-23T08:07:03;6.37;;;1.30;;
3795;SDS011;1913;50.660;7.834;2024-02-23T08:09:28;4.50;;;1.47;;
3795;SDS011;1913;50.660;7.834;2024-02-23T08:11:53;9.23;;;1.40;;
3795;SDS011;1913;50.660;7.834;2024-02-23T08:14:18;5.70;;;1.47;;
3795;SDS011;1913;50.660;7.834;2024-02-23T08:16:44;6.57;;;1.50;;
3795;SDS011;1913;50.660;7.834;2024-02-23T08:19:09;3.40;;;1.40;;
3795;SDS011;1913;50.660;7.834;2024-02-23T08:21:34;3.17;;;1.30;;
3795;SDS011;1913;50.660;7.834;2024-02-23T08:23:59;8.57;;;1.47;;
3795;SDS011;1913;50.660;7.834;2024-02-23T08:26:25;3.07;;;1.20;;
3795;SDS011;1913;50.660;7.834;2024-02-23T08:28:50;4.53;;;1.40;;
3795;SDS011;1913;50.660;7.834;2024-02-23T08:31:15;6.07;;;1.60;;
3795;SDS011;1913;50.660;7.834;2024-02-23T08:33:41;6.80;;;1.90;;
3795;SDS011;1913;50.660;7.834;2024-02-23T08:36:06;8.90;;;1.80;;
3795;SDS011;1913;50.660;7.834;2024-02-23T08:38:32;11.10;;;1.60;;
3795;SDS011;1913;50.660;7.834;2024-02-23T08:40:57;5.10;;;1.37;;
3795;SDS011;1913;50.660;7.834;2024-02-23T08:43:23;3.45;;;1.40;;
3795;SDS011;1913;50.660;7.834;2024-02-23T08:45:49;6.03;;;2.07;;
3795;SDS011;1913;50.660;7.834;2024-02-23T08:48:14;6.73;;;1.30;;
3795;SDS011;1913;50.660;7.834;2024-02-23T08:50:40;4.37;;;1.70;;
3795;SDS011;1913;50.660;7.834;2024-02-23T08:53:05;3.87;;;1.40;;
3795;SDS011;1913;50.660;7.834;2024-02-23T08:55:30;3.97;;;1.47;;
3795;SDS011;1913;50.660;7.834;2024-02-23T08:57:56;10.30;;;1.80;;
3795;SDS011;1913;50.660;7.834;2024-02-23T09:00:22;4.50;;;1.40;;
3795;SDS011;1913;50.660;7.834;2024-02-23T09:02:49;4.80;;;1.57;;
3795;SDS011;1913;50.660;7.834;2024-02-23T09:05:15;7.00;;;1.60;;
3795;SDS011;1913;50.660;7.834;2024-02-23T09:07:40;4.90;;;1.43;;
3795;SDS011;1913;50.660;7.834;2024-02-23T09:10:05;6.83;;;2.27;;
3795;SDS011;1913;50.660;7.834;2024-02-23T09:12:31;14.87;;;1.73;;
3795;SDS011;1913;50.660;7.834;2024-02-23T09:14:56;8.30;;;1.93;;
3795;SDS011;1913;50.660;7.834;2024-02-23T09:17:21;2.50;;;1.27;;
3795;SDS011;1913;50.660;7.834;2024-02-23T09:19:47;6.33;;;1.87;;
3795;SDS011;1913;50.660;7.834;2024-02-23T09:22:12;8.63;;;1.53;;
3795;SDS011;1913;50.660;7.834;2024-02-23T09:24:41;3.13;;;1.20;;
3795;SDS011;1913;50.660;7.834;2024-02-23T09:27:06;5.10;;;1.30;;
3795;SDS011;1913;50.660;7.834;2024-02-23T09:29:32;9.00;;;1.03;;
3795;SDS011;1913;50.660;7.834;2024-02-23T09:31:57;5.53;;;1.77;;
3795;SDS011;1913;50.660;7.834;2024-02-23T09:34:23;4.67;;;1.40;;
3795;SDS011;1913;50.660;7.834;2024-02-23T09:36:48;4.63;;;1.47;;
3795;SDS011;1913;50.660;7.834;2024-02-23T09:39:13;5.67;;;1.77;;
3795;SDS011;1913;50.660;7.834;2024-02-23T09:41:38;5.60;;;1.67;;
3795;SDS011;1913;50.660;7.834;2024-02-23T09:44:04;6.87;;;2.90;;
3795;SDS011;1913;50.660;7.834;2024-02-23T09:46:32;4.80;;;2.43;;
3795;SDS011;1913;50.660;7.834;2024-02-23T09:48:57;4.77;;;1.60;;
3795;SDS011;1913;50.660;7.834;2024-02-23T09:51:23;14.00;;;2.50;;
3795;SDS011;1913;50.660;7.834;2024-02-23T09:53:50;8.33;;;1.50;;
3795;SDS011;1913;50.660;7.834;2024-02-23T09:56:19;2.50;;;1.47;;
3795;SDS011;1913;50.660;7.834;2024-02-23T09:58:46;3.23;;;1.27;;
3795;SDS011;1913;50.660;7.834;2024-02-23T10:01:12;12.40;;;1.63;;
3795;SDS011;1913;50.660;7.834;2024-02-23T10:03:39;5.07;;;1.40;;
3795;SDS011;1913;50.660;7.834;2024-02-23T10:06:04;6.20;;;1.37;;
3795;SDS011;1913;50.660;7.834;2024-02-23T10:08:30;6.27;;;1.53;;
3795;SDS011;1913;50.660;7.834;2024-02-23T10:10:55;3.63;;;1.47;;
3795;SDS011;1913;50.660;7.834;2024-02-23T10:13:24;4.07;;;1.50;;
3795;SDS011;1913;50.660;7.834;2024-02-23T10:15:49;5.50;;;1.50;;
3795;SDS011;1913;50.660;7.834;2024-02-23T10:18:14;5.30;;;1.43;;
3795;SDS011;1913;50.660;7.834;2024-02-23T10:20:40;2.00;;;1.40;;
3795;SDS011;1913;50.660;7.834;2024-02-23T10:23:05;5.30;;;1.77;;
3795;SDS011;1913;50.660;7.834;2024-02-23T10:25:33;3.77;;;1.80;;
3795;SDS011;1913;50.660;7.834;2024-02-23T10:27:58;5.60;;;1.50;;
3795;SDS011;1913;50.660;7.834;2024-02-23T10:30:26;9.33;;;1.80;;
3795;SDS011;1913;50.660;7.834;2024-02-23T10:32:52;8.07;;;2.03;;
3795;SDS011;1913;50.660;7.834;2024-02-23T10:35:20;4.90;;;1.40;;
3795;SDS011;1913;50.660;7.834;2024-02-23T10:37:47;5.17;;;1.27;;
3795;SDS011;1913;50.660;7.834;2024-02-23T10:40:15;6.87;;;1.50;;
3795;SDS011;1913;50.660;7.834;2024-02-23T10:42:41;5.73;;;2.10;;
3795;SDS011;1913;50.660;7.834;2024-02-23T10:45:09;2.50;;;1.10;;
3795;SDS011;1913;50.660;7.834;2024-02-23T10:47:34;6.83;;;1.33;;
3795;SDS011;1913;50.660;7.834;2024-02-23T10:50:00;12.63;;;2.07;;
3795;SDS011;1913;50.660;7.834;2024-02-23T10:52:26;5.30;;;1.27;;
3795;SDS011;1913;50.660;7.834;2024-02-23T10:54:52;8.73;;;2.03;;
3795;SDS011;1913;50.660;7.834;2024-02-23T10:57:17;6.70;;;1.50;;
3795;SDS011;1913;50.660;7.834;2024-02-23T10:59:44;5.00;;;1.40;;
3795;SDS011;1913;50.660;7.834;2024-02-23T11:02:09;3.60;;;1.40;;
3795;SDS011;1913;50.660;7.834;2024-02-23T11:04:35;2.07;;;1.30;;
3795;SDS011;1913;50.660;7.834;2024-02-23T11:07:01;4.60;;;1.40;;
3795;SDS011;1913;50.660;7.834;2024-02-23T11:09:31;3.90;;;1.63;;
3795;SDS011;1913;50.660;7.834;2024-02-23T11:11:57;8.10;;;1.60;;
3795;SDS011;1913;50.660;7.834;2024-02-23T11:14:31;3.63;;;1.10;;
3795;SDS011;1913;50.660;7.834;2024-02-23T11:17:00;3.40;;;1.23;;
3795;SDS011;1913;50.660;7.834;2024-02-23T11:19:31;5.80;;;1.47;;
3795;SDS011;1913;50.660;7.834;2024-02-23T11:21:57;9.70;;;1.83;;
3795;SDS011;1913;50.660;7.834;2024-02-23T11:24:25;4.90;;;1.30;;
3795;SDS011;1913;50.660;7.834;2024-02-23T11:26:50;4.70;;;1.40;;
3795;SDS011;1913;50.660;7.834;2024-02-23T11:29:20;4.40;;;1.50;;
3795;SDS011;1913;50.660;7.834;2024-02-23T11:31:46;3.40;;;1.40;;
3795;SDS011;1913;50.660;7.834;2024-02-23T11:34:11;3.50;;;1.30;;
3795;SDS011;1913;50.660;7.834;2024-02-23T11:36:37;4.33;;;1.70;;
3795;SDS011;1913;50.660;7.834;2024-02-23T11:39:03;4.77;;;1.67;;
3795;SDS011;1913;50.660;7.834;2024-02-23T11:41:28;5.37;;;1.37;;
3795;SDS011;1913;50.660;7.834;2024-02-23T11:43:54;5.40;;;1.43;;
3795;SDS011;1913;50.660;7.834;2024-02-23T11:46:26;4.00;;;1.33;;
3795;SDS011;1913;50.660;7.834;2024-02-23T11:48:51;2.23;;;1.17;;
3795;SDS011;1913;50.660;7.834;2024-02-23T11:51:22;1.87;;;1.00;;
3795;SDS011;1913;50.660;7.834;2024-02-23T11:53:48;2.70;;;1.10;;
3795;SDS011;1913;50.660;7.834;2024-02-23T11:56:13;5.67;;;1.63;;
3795;SDS011;1913;50.660;7.834;2024-02-23T11:58:39;1.80;;;1.20;;
3795;SDS011;1913;50.660;7.834;2024-02-23T12:01:04;5.47;;;1.43;;
3795;SDS011;1913;50.660;7.834;2024-02-23T12:03:32;6.43;;;1.53;;
3795;SDS011;1913;50.660;7.834;2024-02-23T12:05:57;7.37;;;1.30;;
3795;SDS011;1913;50.660;7.834;2024-02-23T12:08:23;2.30;;;1.40;;
3795;SDS011;1913;50.660;7.834;2024-02-23T12:10:50;1.90;;;1.23;;
3795;SDS011;1913;50.660;7.834;2024-02-23T12:13:16;3.67;;;1.33;;
3795;SDS011;1913;50.660;7.834;2024-02-23T12:15:41;1.97;;;1.13;;
3795;SDS011;1913;50.660;7.834;2024-02-23T12:18:06;2.73;;;1.13;;
3795;SDS011;1913;50.660;7.834;2024-02-23T12:20:35;3.50;;;1.33;;
3795;SDS011;1913;50.660;7.834;2024-02-23T12:23:00;4.87;;;1.30;;
3795;SDS011;1913;50.660;7.834;2024-02-23T12:25:29;9.97;;;1.80;;
3795;SDS011;1913;50.660;7.834;2024-02-23T12:27:55;3.10;;;1.13;;
3795;SDS011;1913;50.660;7.834;2024-02-23T12:30:20;9.43;;;1.17;;
3795;SDS011;1913;50.660;7.834;2024-02-23T12:32:46;3.07;;;1.23;;
3795;SDS011;1913;50.660;7.834;2024-02-23T12:35:11;4.83;;;1.23;;
3795;SDS011;1913;50.660;7.834;2024-02-23T12:37:37;6.10;;;1.60;;
3795;SDS011;1913;50.660;7.834;2024-02-23T12:40:02;2.63;;;1.23;;
3795;SDS011;1913;50.660;7.834;2024-02-23T12:42:27;5.10;;;1.50;;
3795;SDS011;1913;50.660;7.834;2024-02-23T12:44:53;2.60;;;1.40;;
3795;SDS011;1913;50.660;7.834;2024-02-23T12:47:18;2.87;;;1.30;;
3795;SDS011;1913;50.660;7.834;2024-02-23T12:49:43;6.90;;;1.40;;
3795;SDS011;1913;50.660;7.834;2024-02-23T12:52:08;2.43;;;1.40;;
3795;SDS011;1913;50.660;7.834;2024-02-23T12:54:33;2.57;;;1.40;;
3795;SDS011;1913;50.660;7.834;2024-02-23T12:56:59;6.77;;;1.43;;
3795;SDS011;1913;50.660;7.834;2024-02-23T12:59:24;3.47;;;1.27;;
3795;SDS011;1913;50.660;7.834;2024-02-23T13:01:50;2.97;;;1.20;;
3795;SDS011;1913;50.660;7.834;2024-02-23T13:04:15;3.27;;;1.57;;
3795;SDS011;1913;50.660;7.834;2024-02-23T13:06:40;4.40;;;1.23;;
3795;SDS011;1913;50.660;7.834;2024-02-23T13:09:06;4.57;;;1.40;;
3795;SDS011;1913;50.660;7.834;2024-02-23T13:11:33;2.70;;;1.50;;
3795;SDS011;1913;50.660;7.834;2024-02-23T13:13:59;4.03;;;1.50;;
3795;SDS011;1913;50.660;7.834;2024-02-23T13:16:24;6.27;;;1.70;;
3795;SDS011;1913;50.660;7.834;2024-02-23T13:18:49;3.20;;;1.17;;
3795;SDS011;1913;50.660;7.834;2024-02-23T13:21:15;4.60;;;1.30;;
3795;SDS011;1913;50.660;7.834;2024-02-23T13:23:40;6.97;;;1.47;;
3795;SDS011;1913;50.660;7.834;2024-02-23T13:26:07;2.30;;;1.40;;
3795;SDS011;1913;50.660;7.834;2024-02-23T13:28:32;7.30;;;1.33;;
3795;SDS011;1913;50.660;7.834;2024-02-23T13:30:57;5.40;;;1.37;;
3795;SDS011;1913;50.660;7.834;2024-02-23T13:33:22;6.43;;;1.73;;
3795;SDS011;1913;50.660;7.834;2024-02-23T13:35:49;4.33;;;1.30;;
3795;SDS011;1913;50.660;7.834;2024-02-23T13:38:14;5.63;;;1.30;;
3795;SDS011;1913;50.660;7.834;2024-02-23T13:40:39;4.73;;;1.10;;
3795;SDS011;1913;50.660;7.834;2024-02-23T13:43:04;3.03;;;1.40;;
3795;SDS011;1913;50.660;7.834;2024-02-23T13:45:30;4.70;;;1.00;;
3795;SDS011;1913;50.660;7.834;2024-02-23T13:47:56;3.53;;;1.23;;
3795;SDS011;1913;50.660;7.834;2024-02-23T13:50:21;3.90;;;1.53;;
3795;SDS011;1913;50.660;7.834;2024-02-23T13:52:47;6.27;;;1.27;;
3795;SDS011;1913;50.660;7.834;2024-02-23T13:55:12;4.17;;;1.40;;
3795;SDS011;1913;50.660;7.834;2024-02-23T13:57:38;9.03;;;1.80;;
3795;SDS011;1913;50.660;7.834;2024-02-23T14:00:04;6.73;;;1.53;;
3795;SDS011;1913;50.660;7.834;2024-02-23T14:02:31;4.37;;;0.97;;
3795;SDS011;1913;50.660;7.834;2024-02-23T14:05:00;1.47;;;1.20;;
3795;SDS011;1913;50.660;7.834;2024-02-23T14:07:27;2.53;;;1.20;;
3795;SDS011;1913;50.660;7.834;2024-02-23T14:09:52;7.47;;;1.30;;
3795;SDS011;1913;50.660;7.834;2024-02-23T14:12:17;1.83;;;1.27;;
3795;SDS011;1913;50.660;7.834;2024-02-23T14:14:44;2.67;;;1.10;;
3795;SDS011;1913;50.660;7.834;2024-02-23T14:17:09;4.60;;;1.40;;
3795;SDS011;1913;50.660;7.834;2024-02-23T14:19:34;4.77;;;1.53;;
3795;SDS011;1913;50.660;7.834;2024-02-23T14:21:59;5.57;;;1.53;;
3795;SDS011;1913;50.660;7.834;2024-02-23T14:24:25;2.50;;;1.10;;
3795;SDS011;1913;50.660;7.834;2024-02-23T14:26:50;3.57;;;1.30;;
3795;SDS011;1913;50.660;7.834;2024-02-23T14:29:15;2.83;;;1.10;;
3795;SDS011;1913;50.660;7.834;2024-02-23T14:31:42;4.87;;;1.27;;
3795;SDS011;1913;50.660;7.834;2024-02-23T14:34:07;1.67;;;1.07;;
3795;SDS011;1913;50.660;7.834;2024-02-23T14:36:33;2.03;;;1.00;;
3795;SDS011;1913;50.660;7.834;2024-02-23T14:38:59;4.20;;;1.10;;
3795;SDS011;1913;50.660;7.834;2024-02-23T14:41:25;1.93;;;0.87;;
3795;SDS011;1913;50.660;7.834;2024-02-23T14:43:50;1.70;;;1.00;;
3795;SDS011;1913;50.660;7.834;2024-02-23T14:46:15;1.77;;;1.10;;
3795;SDS011;1913;50.660;7.834;2024-02-23T14:48:40;3.03;;;1.17;;
3795;SDS011;1913;50.660;7.834;2024-02-23T14:51:06;7.20;;;1.50;;
3795;SDS011;1913;50.660;7.834;2024-02-23T14:53:33;3.60;;;0.93;;
3795;SDS011;1913;50.660;7.834;2024-02-23T14:55:58;3.77;;;1.20;;
3795;SDS011;1913;50.660;7.834;2024-02-23T14:58:24;2.13;;;1.07;;
3795;SDS011;1913;50.660;7.834;2024-02-23T15:00:49;4.90;;;1.30;;
3795;SDS011;1913;50.660;7.834;2024-02-23T15:03:14;2.87;;;1.37;;
3795;SDS011;1913;50.660;7.834;2024-02-23T15:05:39;3.13;;;1.00;;